Aglaia — V7CW5 — position and weather

sailwx.info

Track history (hours):
 
Tides and Currents Weather Stations Pressure Air Temp Water Temp Dewpoint Dewpoint Depression Visibility Wind Speed Wind Dir Waves Ship Positions

Aglaia

Last reported at 2018-Feb-21 11:29 UTC. Time now 2018-Feb-21 11:46 UTC.
Position N 41°11' W 008°42'.

Length 158.7 m; beam 25.6 m; draft 9.2 m.

Type: Cargo ship. MMSI: 538003372.

Date/timePositionNaut miles runAvg speedWind from/ knotsBaromVisibWave heightAir tempDewpointWater temp
2018-Feb-21 11:29N 41°11' W 008°42'0 0.0
2018-Feb-21 10:59N 41°11' W 008°42'0 0.0
2018-Feb-21 10:29N 41°11' W 008°42'0 0.0
2018-Feb-21 09:59N 41°11' W 008°42'0 0.0
2018-Feb-21 09:29N 41°11' W 008°42'0 0.0
2018-Feb-21 08:59N 41°11' W 008°42'0 0.0
2018-Feb-21 08:29N 41°11' W 008°42'0 0.0
2018-Feb-21 07:59N 41°11' W 008°42'0 0.0
2018-Feb-21 07:29N 41°11' W 008°42'0 0.0
2018-Feb-21 06:59N 41°11' W 008°42'0 0.7
2018-Feb-21 06:31N 41°11' W 008°42'2 4.3
2018-Feb-21 06:00N 41°09' W 008°44'5 8.4
2018-Feb-21 05:27N 41°13' W 008°47'59213.8
2018-Feb-19 10:30N 50°57' W 006°20'1515.9
2018-Feb-19 09:34N 51°11' W 006°13'5415.5
2018-Feb-19 06:04N 52°04' W 005°53'116.9
2018-Feb-19 06:00N 52°05' W 005°53'917.3
2018-Feb-19 05:30N 52°13' W 005°52'918.0
2018-Feb-19 05:00N 52°22' W 005°51'918.4
2018-Feb-19 04:30N 52°31' W 005°50'918.6
2018-Feb-19 04:00N 52°41' W 005°50'918.4
2018-Feb-19 03:29N 52°50' W 005°52'919.3
2018-Feb-19 03:00N 52°59' W 005°54'1019.0
2018-Feb-19 02:30N 53°09' W 005°57'917.3
2018-Feb-19 02:00N 53°17' W 006°01'611.7
2018-Feb-19 01:30N 53°21' W 006°09'2 4.1
2018-Feb-19 00:56N 53°21' W 006°13'0 0.0
2018-Feb-19 00:11N 53°21' W 006°13'0 0.0
2018-Feb-18 23:44N 53°21' W 006°13'0 0.0
2018-Feb-18 23:14N 53°21' W 006°13'0 0.0
2018-Feb-18 22:38N 53°21' W 006°13'0 0.0
2018-Feb-18 22:29N 53°21' W 006°13'0 0.0
2018-Feb-18 21:41N 53°21' W 006°13'0 0.0
2018-Feb-18 21:29N 53°21' W 006°13'0 0.0
2018-Feb-18 20:59N 53°21' W 006°13'0 0.0
2018-Feb-18 20:29N 53°21' W 006°13'0 0.0
2018-Feb-18 19:56N 53°21' W 006°13'0 0.0
2018-Feb-18 19:29N 53°21' W 006°13'0 0.0
2018-Feb-18 18:59N 53°21' W 006°13'0 0.0
2018-Feb-18 18:26N 53°21' W 006°13'0 0.0
2018-Feb-18 17:50N 53°21' W 006°13'0 0.0
2018-Feb-18 17:17N 53°21' W 006°13'0 0.0
2018-Feb-18 16:44N 53°21' W 006°13'0 0.0
2018-Feb-18 16:11N 53°21' W 006°13'0 0.0
2018-Feb-18 15:59N 53°21' W 006°13'0 0.0
2018-Feb-18 15:29N 53°21' W 006°13'0 0.0
2018-Feb-18 14:38N 53°21' W 006°13'0 0.0
2018-Feb-18 14:29N 53°21' W 006°13'0 0.0
2018-Feb-18 13:35N 53°21' W 006°13'0 0.0
2018-Feb-18 13:29N 53°21' W 006°13'0 0.0
2018-Feb-18 12:59N 53°21' W 006°13'0 0.0
2018-Feb-18 12:26N 53°21' W 006°13'0 0.6
2018-Feb-18 12:00N 53°21' W 006°12'3 6.2
2018-Feb-18 11:30N 53°21' W 006°07'4 7.5
2018-Feb-18 10:59N 53°21' W 006°01'714.4
2018-Feb-18 10:31N 53°23' W 005°50'816.8
2018-Feb-18 10:00N 53°25' W 005°36'4816.2
2018-Feb-18 07:04N 53°34' W 004°17'116.9
2018-Feb-18 06:59N 53°34' W 004°15'817.2
2018-Feb-18 06:30N 53°34' W 004°01'917.6
2018-Feb-18 05:58N 53°34' W 003°45'818.0
2018-Feb-18 05:30N 53°33' W 003°31'917.5
2018-Feb-18 05:00N 53°32' W 003°17'612.4
2018-Feb-18 04:30N 53°31' W 003°06'5 9.5
2018-Feb-18 04:00N 53°27' W 003°01'0 0.0
2018-Feb-18 03:29N 53°27' W 003°01'1 1.3
2018-Feb-18 03:00N 53°28' W 003°02'0 0.0
2018-Feb-18 02:30N 53°28' W 003°02'0 0.4
2018-Feb-18 01:59N 53°28' W 003°01'0 0.0
2018-Feb-18 01:29N 53°28' W 003°01'0 0.0
2018-Feb-18 00:59N 53°28' W 003°01'0 0.0
2018-Feb-18 00:26N 53°28' W 003°01'0 0.0
2018-Feb-17 23:59N 53°28' W 003°01'0 0.0
2018-Feb-17 23:29N 53°28' W 003°01'0 0.0
2018-Feb-17 22:53N 53°28' W 003°01'0 0.0
2018-Feb-17 22:29N 53°28' W 003°01'0 0.0
2018-Feb-17 21:59N 53°28' W 003°01'0 0.0
2018-Feb-17 21:29N 53°28' W 003°01'0 0.0
2018-Feb-17 20:59N 53°28' W 003°01'0 0.0
2018-Feb-17 20:29N 53°28' W 003°01'0 0.0
2018-Feb-17 19:59N 53°28' W 003°01'0 0.0
2018-Feb-17 19:29N 53°28' W 003°01'0 0.0
2018-Feb-17 18:59N 53°28' W 003°01'0 0.0
2018-Feb-17 18:29N 53°28' W 003°01'0 0.0
2018-Feb-17 17:59N 53°28' W 003°01'0 0.0
2018-Feb-17 17:26N 53°28' W 003°01'0 0.0
2018-Feb-17 16:59N 53°28' W 003°01'0 0.0
2018-Feb-17 16:29N 53°28' W 003°01'0 0.0
2018-Feb-17 15:59N 53°28' W 003°01'0 0.0
2018-Feb-17 15:29N 53°28' W 003°01'0 0.0
2018-Feb-17 14:59N 53°28' W 003°01'0 0.0
2018-Feb-17 14:29N 53°28' W 003°01'0 0.0
2018-Feb-17 13:59N 53°28' W 003°01'0 0.0
2018-Feb-17 13:29N 53°28' W 003°01'0 0.0
2018-Feb-17 12:59N 53°28' W 003°01'0 0.0
2018-Feb-17 12:29N 53°28' W 003°01'0 0.0
2018-Feb-17 11:59N 53°28' W 003°01'0 0.0
2018-Feb-17 11:29N 53°28' W 003°01'0 0.4
2018-Feb-17 11:00N 53°28' W 003°02'1 1.2
2018-Feb-17 10:30N 53°27' W 003°01'0 0.7
2018-Feb-17 10:00N 53°27' W 003°01'3 6.3
2018-Feb-17 09:30N 53°29' W 003°05'5 9.4
2018-Feb-17 09:00N 53°32' W 003°11'611.0
2018-Feb-17 08:30N 53°31' W 003°21'2 3.0
2018-Feb-17 08:00N 53°31' W 003°23'4 7.4
2018-Feb-17 07:30N 53°31' W 003°29'4 7.7
2018-Feb-17 07:00N 53°31' W 003°36'4 7.2
2018-Feb-17 06:30N 53°31' W 003°42'4 7.4
2018-Feb-17 06:00N 53°31' W 003°48'4 8.6
2018-Feb-17 05:30N 53°31' W 003°55'5 9.7
2018-Feb-17 05:00N 53°30' W 004°04'  
2018-Feb-14 16:01N 41°17' W 008°49'013.8
2018-Feb-14 16:00N 41°17' W 008°49'713.4
2018-Feb-14 15:31N 41°11' W 008°45'2 4.6
2018-Feb-14 14:59N 41°11' W 008°42'0 0.0
2018-Feb-14 14:29N 41°11' W 008°42'0 0.0
2018-Feb-14 13:59N 41°11' W 008°42'0 0.0
2018-Feb-14 13:29N 41°11' W 008°42'0 0.0
2018-Feb-14 12:59N 41°11' W 008°42'0 0.0
2018-Feb-14 12:29N 41°11' W 008°42'0 0.0
2018-Feb-14 11:59N 41°11' W 008°42'0 0.0
2018-Feb-14 11:29N 41°11' W 008°42'0 0.0
2018-Feb-14 10:59N 41°11' W 008°42'0 0.0
2018-Feb-14 10:29N 41°11' W 008°42'0 0.0
2018-Feb-14 09:59N 41°11' W 008°42'0 0.0
2018-Feb-14 09:29N 41°11' W 008°42'0 0.0
2018-Feb-14 08:59N 41°11' W 008°42'0 0.0
2018-Feb-14 08:29N 41°11' W 008°42'0 0.0
2018-Feb-14 07:59N 41°11' W 008°42'0 0.0
2018-Feb-14 07:29N 41°11' W 008°42'0 0.0
2018-Feb-14 06:59N 41°11' W 008°42'0 0.0
2018-Feb-14 06:30N 41°11' W 008°42'2 3.5
2018-Feb-14 06:00N 41°09' W 008°43'611.1
2018-Feb-14 05:30N 41°05' W 008°47'10615.9
2018-Feb-13 22:48N 39°29' W 009°48'516.9
2018-Feb-13 22:30N 39°24' W 009°49'917.3
2018-Feb-13 21:59N 39°15' W 009°49'817.2
2018-Feb-13 21:31N 39°07' W 009°50'917.0
2018-Feb-13 21:00N 38°59' W 009°51'917.2
2018-Feb-13 20:30N 38°50' W 009°52'917.3
2018-Feb-13 20:00N 38°41' W 009°51'917.3
2018-Feb-13 19:30N 38°33' W 009°49'917.1
2018-Feb-13 18:57N 38°23' W 009°47'817.3
2018-Feb-13 18:28N 38°15' W 009°44'1217.0
2018-Feb-13 17:45N 38°04' W 009°41'417.2
2018-Feb-13 17:30N 37°59' W 009°40'917.3
2018-Feb-13 17:00N 37°51' W 009°38'917.5
2018-Feb-13 16:30N 37°42' W 009°35'21615.9
2018-Feb-13 02:55N 35°58' W 005°39'615.6
2018-Feb-13 02:31N 35°59' W 005°31'816.8
2018-Feb-13 02:00N 36°01' W 005°21'21716.6
2018-Feb-12 12:55N 37°10' W 001°05'717.9
2018-Feb-12 12:30N 37°15' W 000°59'917.9
2018-Feb-12 12:00N 37°22' W 000°51'918.0
2018-Feb-12 11:31N 37°28' W 000°42'917.6
2018-Feb-12 11:00N 37°34' W 000°34'917.2
2018-Feb-12 10:31N 37°41' W 000°28'1916.9
2018-Feb-12 09:23N 37°57' W 000°15'616.8
2018-Feb-12 09:01N 38°02' W 000°11'  
Track history (hours):
 
Tides and Currents Weather Stations Pressure Air Temp Water Temp Dewpoint Dewpoint Depression Visibility Wind Speed Wind Dir Waves Ship Positions

Aglaia

Last reported at 2018-Feb-21 11:29 UTC. Time now 2018-Feb-21 11:46 UTC.
Position N 41°11' W 008°42'.

Length 158.7 m; beam 25.6 m; draft 9.2 m.

Type: Cargo ship. MMSI: 538003372.

Date/timePositionNaut miles runAvg speedWind from/ knotsBaromVisibWave heightAir tempDewpointWater temp
2018-Feb-21 11:29N 41°11' W 008°42'0 0.0
2018-Feb-21 10:59N 41°11' W 008°42'0 0.0
2018-Feb-21 10:29N 41°11' W 008°42'0 0.0
2018-Feb-21 09:59N 41°11' W 008°42'0 0.0
2018-Feb-21 09:29N 41°11' W 008°42'0 0.0
2018-Feb-21 08:59N 41°11' W 008°42'0 0.0
2018-Feb-21 08:29N 41°11' W 008°42'0 0.0
2018-Feb-21 07:59N 41°11' W 008°42'0 0.0
2018-Feb-21 07:29N 41°11' W 008°42'0 0.0
2018-Feb-21 06:59N 41°11' W 008°42'0 0.7
2018-Feb-21 06:31N 41°11' W 008°42'2 4.3
2018-Feb-21 06:00N 41°09' W 008°44'5 8.4
2018-Feb-21 05:27N 41°13' W 008°47'59213.8
2018-Feb-19 10:30N 50°57' W 006°20'1515.9
2018-Feb-19 09:34N 51°11' W 006°13'5415.5
2018-Feb-19 06:04N 52°04' W 005°53'116.9
2018-Feb-19 06:00N 52°05' W 005°53'917.3
2018-Feb-19 05:30N 52°13' W 005°52'918.0
2018-Feb-19 05:00N 52°22' W 005°51'918.4
2018-Feb-19 04:30N 52°31' W 005°50'918.6
2018-Feb-19 04:00N 52°41' W 005°50'918.4
2018-Feb-19 03:29N 52°50' W 005°52'919.3
2018-Feb-19 03:00N 52°59' W 005°54'1019.0
2018-Feb-19 02:30N 53°09' W 005°57'917.3
2018-Feb-19 02:00N 53°17' W 006°01'611.7
2018-Feb-19 01:30N 53°21' W 006°09'2 4.1
2018-Feb-19 00:56N 53°21' W 006°13'0 0.0
2018-Feb-19 00:11N 53°21' W 006°13'0 0.0
2018-Feb-18 23:44N 53°21' W 006°13'0 0.0
2018-Feb-18 23:14N 53°21' W 006°13'0 0.0
2018-Feb-18 22:38N 53°21' W 006°13'0 0.0
2018-Feb-18 22:29N 53°21' W 006°13'0 0.0
2018-Feb-18 21:41N 53°21' W 006°13'0 0.0
2018-Feb-18 21:29N 53°21' W 006°13'0 0.0
2018-Feb-18 20:59N 53°21' W 006°13'0 0.0
2018-Feb-18 20:29N 53°21' W 006°13'0 0.0
2018-Feb-18 19:56N 53°21' W 006°13'0 0.0
2018-Feb-18 19:29N 53°21' W 006°13'0 0.0
2018-Feb-18 18:59N 53°21' W 006°13'0 0.0
2018-Feb-18 18:26N 53°21' W 006°13'0 0.0
2018-Feb-18 17:50N 53°21' W 006°13'0 0.0
2018-Feb-18 17:17N 53°21' W 006°13'0 0.0
2018-Feb-18 16:44N 53°21' W 006°13'0 0.0
2018-Feb-18 16:11N 53°21' W 006°13'0 0.0
2018-Feb-18 15:59N 53°21' W 006°13'0 0.0
2018-Feb-18 15:29N 53°21' W 006°13'0 0.0
2018-Feb-18 14:38N 53°21' W 006°13'0 0.0
2018-Feb-18 14:29N 53°21' W 006°13'0 0.0
2018-Feb-18 13:35N 53°21' W 006°13'0 0.0
2018-Feb-18 13:29N 53°21' W 006°13'0 0.0
2018-Feb-18 12:59N 53°21' W 006°13'0 0.0
2018-Feb-18 12:26N 53°21' W 006°13'0 0.6
2018-Feb-18 12:00N 53°21' W 006°12'3 6.2
2018-Feb-18 11:30N 53°21' W 006°07'4 7.5
2018-Feb-18 10:59N 53°21' W 006°01'714.4
2018-Feb-18 10:31N 53°23' W 005°50'816.8
2018-Feb-18 10:00N 53°25' W 005°36'4816.2
2018-Feb-18 07:04N 53°34' W 004°17'116.9
2018-Feb-18 06:59N 53°34' W 004°15'817.2
2018-Feb-18 06:30N 53°34' W 004°01'917.6
2018-Feb-18 05:58N 53°34' W 003°45'818.0
2018-Feb-18 05:30N 53°33' W 003°31'917.5
2018-Feb-18 05:00N 53°32' W 003°17'612.4
2018-Feb-18 04:30N 53°31' W 003°06'5 9.5
2018-Feb-18 04:00N 53°27' W 003°01'0 0.0
2018-Feb-18 03:29N 53°27' W 003°01'1 1.3
2018-Feb-18 03:00N 53°28' W 003°02'0 0.0
2018-Feb-18 02:30N 53°28' W 003°02'0 0.4
2018-Feb-18 01:59N 53°28' W 003°01'0 0.0
2018-Feb-18 01:29N 53°28' W 003°01'0 0.0
2018-Feb-18 00:59N 53°28' W 003°01'0 0.0
2018-Feb-18 00:26N 53°28' W 003°01'0 0.0
2018-Feb-17 23:59N 53°28' W 003°01'0 0.0
2018-Feb-17 23:29N 53°28' W 003°01'0 0.0
2018-Feb-17 22:53N 53°28' W 003°01'0 0.0
2018-Feb-17 22:29N 53°28' W 003°01'0 0.0
2018-Feb-17 21:59N 53°28' W 003°01'0 0.0
2018-Feb-17 21:29N 53°28' W 003°01'0 0.0
2018-Feb-17 20:59N 53°28' W 003°01'0 0.0
2018-Feb-17 20:29N 53°28' W 003°01'0 0.0
2018-Feb-17 19:59N 53°28' W 003°01'0 0.0
2018-Feb-17 19:29N 53°28' W 003°01'0 0.0
2018-Feb-17 18:59N 53°28' W 003°01'0 0.0
2018-Feb-17 18:29N 53°28' W 003°01'0 0.0
2018-Feb-17 17:59N 53°28' W 003°01'0 0.0
2018-Feb-17 17:26N 53°28' W 003°01'0 0.0
2018-Feb-17 16:59N 53°28' W 003°01'0 0.0
2018-Feb-17 16:29N 53°28' W 003°01'0 0.0
2018-Feb-17 15:59N 53°28' W 003°01'0 0.0
2018-Feb-17 15:29N 53°28' W 003°01'0 0.0
2018-Feb-17 14:59N 53°28' W 003°01'0 0.0
2018-Feb-17 14:29N 53°28' W 003°01'0 0.0
2018-Feb-17 13:59N 53°28' W 003°01'0 0.0
2018-Feb-17 13:29N 53°28' W 003°01'0 0.0
2018-Feb-17 12:59N 53°28' W 003°01'0 0.0
2018-Feb-17 12:29N 53°28' W 003°01'0 0.0
2018-Feb-17 11:59N 53°28' W 003°01'0 0.0
2018-Feb-17 11:29N 53°28' W 003°01'0 0.4
2018-Feb-17 11:00N 53°28' W 003°02'1 1.2
2018-Feb-17 10:30N 53°27' W 003°01'0 0.7
2018-Feb-17 10:00N 53°27' W 003°01'3 6.3
2018-Feb-17 09:30N 53°29' W 003°05'5 9.4
2018-Feb-17 09:00N 53°32' W 003°11'611.0
2018-Feb-17 08:30N 53°31' W 003°21'2 3.0
2018-Feb-17 08:00N 53°31' W 003°23'4 7.4
2018-Feb-17 07:30N 53°31' W 003°29'4 7.7
2018-Feb-17 07:00N 53°31' W 003°36'4 7.2
2018-Feb-17 06:30N 53°31' W 003°42'4 7.4
2018-Feb-17 06:00N 53°31' W 003°48'4 8.6
2018-Feb-17 05:30N 53°31' W 003°55'5 9.7
2018-Feb-17 05:00N 53°30' W 004°04'  
2018-Feb-14 16:01N 41°17' W 008°49'013.8
2018-Feb-14 16:00N 41°17' W 008°49'713.4
2018-Feb-14 15:31N 41°11' W 008°45'2 4.6
2018-Feb-14 14:59N 41°11' W 008°42'0 0.0
2018-Feb-14 14:29N 41°11' W 008°42'0 0.0
2018-Feb-14 13:59N 41°11' W 008°42'0 0.0
2018-Feb-14 13:29N 41°11' W 008°42'0 0.0
2018-Feb-14 12:59N 41°11' W 008°42'0 0.0
2018-Feb-14 12:29N 41°11' W 008°42'0 0.0
2018-Feb-14 11:59N 41°11' W 008°42'0 0.0
2018-Feb-14 11:29N 41°11' W 008°42'0 0.0
2018-Feb-14 10:59N 41°11' W 008°42'0 0.0
2018-Feb-14 10:29N 41°11' W 008°42'0 0.0
2018-Feb-14 09:59N 41°11' W 008°42'0 0.0
2018-Feb-14 09:29N 41°11' W 008°42'0 0.0
2018-Feb-14 08:59N 41°11' W 008°42'0 0.0
2018-Feb-14 08:29N 41°11' W 008°42'0 0.0
2018-Feb-14 07:59N 41°11' W 008°42'0 0.0
2018-Feb-14 07:29N 41°11' W 008°42'0 0.0
2018-Feb-14 06:59N 41°11' W 008°42'0 0.0
2018-Feb-14 06:30N 41°11' W 008°42'2 3.5
2018-Feb-14 06:00N 41°09' W 008°43'611.1
2018-Feb-14 05:30N 41°05' W 008°47'10615.9
2018-Feb-13 22:48N 39°29' W 009°48'516.9
2018-Feb-13 22:30N 39°24' W 009°49'917.3
2018-Feb-13 21:59N 39°15' W 009°49'817.2
2018-Feb-13 21:31N 39°07' W 009°50'917.0
2018-Feb-13 21:00N 38°59' W 009°51'917.2
2018-Feb-13 20:30N 38°50' W 009°52'917.3
2018-Feb-13 20:00N 38°41' W 009°51'917.3
2018-Feb-13 19:30N 38°33' W 009°49'917.1
2018-Feb-13 18:57N 38°23' W 009°47'817.3
2018-Feb-13 18:28N 38°15' W 009°44'1217.0
2018-Feb-13 17:45N 38°04' W 009°41'417.2
2018-Feb-13 17:30N 37°59' W 009°40'917.3
2018-Feb-13 17:00N 37°51' W 009°38'917.5
2018-Feb-13 16:30N 37°42' W 009°35'21615.9
2018-Feb-13 02:55N 35°58' W 005°39'615.6
2018-Feb-13 02:31N 35°59' W 005°31'816.8
2018-Feb-13 02:00N 36°01' W 005°21'21716.6
2018-Feb-12 12:55N 37°10' W 001°05'717.9
2018-Feb-12 12:30N 37°15' W 000°59'917.9
2018-Feb-12 12:00N 37°22' W 000°51'918.0
2018-Feb-12 11:31N 37°28' W 000°42'917.6
2018-Feb-12 11:00N 37°34' W 000°34'917.2
2018-Feb-12 10:31N 37°41' W 000°28'1916.9
2018-Feb-12 09:23N 37°57' W 000°15'616.8
2018-Feb-12 09:01N 38°02' W 000°11'  

Dump ship's entire track history